NCAR-RAP Real-Time Weather Data

Output produced by METARs form (08 May 2021  15:44 UTC)
found at http://weather.rap.ucar.edu/surface/
 
KPDX 081453Z 00000KT 10SM FEW050 BKN080 08/03 A3043 RMK AO2 SLP302 T00830033 53010
KPDX 081353Z 00000KT 10SM FEW050 BKN085 07/03 A3041 RMK AO2 SLP297 T00720028
KPDX 081253Z 00000KT 10SM FEW035 SCT090 07/02 A3040 RMK AO2 SLP294 T00670022
KPDX 081153Z 00000KT 10SM FEW033 07/02 A3040 RMK AO2 SLP292 T00670022 10094 20067 56003
KPDX 081053Z 00000KT 10SM BKN033 08/03 A3040 RMK AO2 SLP292 T00830028
KPDX 080953Z 00000KT 10SM SCT036 OVC055 08/03 A3040 RMK AO2 SLP294 T00780028
KPDX 080853Z 00000KT 10SM BKN037 BKN049 08/02 A3041 RMK AO2 SLP296 T00780022 51007
KPDX 080753Z 00000KT 10SM CLR 08/02 A3040 RMK AO2 SLP294 T00780022 401610078
KPDX 080653Z 24003KT 10SM FEW070 09/03 A3039 RMK AO2 SLP291 T00890028
KPDX 080553Z 31006KT 10SM FEW070 09/03 A3039 RMK AO2 SLP289 T00940033 10161 20094 51017
KPDX 080453Z 31013KT 10SM FEW070 11/03 A3038 RMK AO2 SLP288 T01060028
KPDX 080353Z 31010KT 10SM FEW060 SCT070 11/02 A3036 RMK AO2 SLP280 T01110022
KPDX 080253Z 30012KT 10SM SCT060 SCT075 12/02 A3033 RMK AO2 SLP272 T01220017 53013
KPDX 080153Z 32014KT 10SM FEW025 SCT060 SCT075 14/01 A3031 RMK AO2 SLP265 T01440011
KPDX 080053Z 28012KT 10SM FEW025 BKN060 BKN080 16/00 A3031 RMK AO2 SLP262 T01560000
KPDX 072353Z 30010KT 10SM FEW025 BKN055 BKN075 15/M01 A3030 RMK AO2 SLP259 60000 T01501006 10161 20100 55003
KPDX 072253Z 31012KT 10SM FEW025 SCT050 BKN080 15/01 A3029 RMK AO2 RAB09E19 SLP258 P0000 T01500011
KPDX 072153Z 31011KT 10SM FEW025 SCT080 BKN100 15/02 A3030 RMK AO2 RAE02 SLP261 P0000 T01500017
KPDX 072053Z 34007G17KT 10SM -RA SCT042 BKN060 BKN100 12/05 A3031 RMK AO2 PK WND 32026/2040 RAB17 SLP263 P0000 60000 T01170050 53013
KPDX 071953Z 00000KT 10SM FEW020 SCT049 BKN065 13/04 A3029 RMK AO2 RAB02E39 SLP257 P0000 T01280044
KPDX 071853Z 34008G21KT 10SM BKN046 BKN070 12/04 A3028 RMK AO2 SLP254 T01170044
KPDX 071753Z 26008KT 10SM SCT035 BKN060 13/02 A3027 RMK AO2 SLP250 T01330017 10133 20094 51007
KPDX 071653Z 26008KT 10SM BKN034 BKN044 11/03 A3027 RMK AO2 SLP249 T01110033
KPDX 071642Z VRB06KT 10SM BKN038 BKN048 12/03 A3027 RMK AO2 T01170033
KPDX 071609Z 28005KT 10SM BKN029 BKN035 BKN110 11/04 A3027 RMK AO2 T01060039
KPDX 071553Z 00000KT 10SM SCT028 BKN075 BKN100 11/04 A3026 RMK AO2 SLP248 T01060039
KPDX 071453Z 23010KT 10SM FEW048 BKN075 10/05 A3025 RMK AO2 SLP243 T01000050 53011
KPDX 071353Z 22009KT 10SM FEW010 BKN048 BKN060 09/06 A3023 RMK AO2 SLP237 T00940056
KPDX 071253Z 16007KT 10SM SCT049 BKN060 09/06 A3022 RMK AO2 SLP232 T00940061
KPDX 071153Z 15007KT 10SM SCT021 OVC044 09/06 A3022 RMK AO2 SLP231 60001 70001 T00940056 10122 20089 51007
KPDX 071150Z 16006KT 10SM SCT021 OVC044 09/05 A3022 RMK AO2
KPDX 071138Z 00000KT 10SM BKN020 BKN046 BKN100 09/05 A3021 RMK AO2 T00940050
KPDX 071053Z 26005KT 10SM SCT046 BKN060 OVC080 09/06 A3021 RMK AO2 RAB0959E39 SLP227 P0001 T00940056
KPDX 070953Z VRB03KT 10SM SCT070 BKN095 BKN120 10/04 A3020 RMK AO2 RAE04 SLP225 P0000 T01000044
KPDX 070853Z 22007KT 10SM -RA BKN049 OVC065 10/05 A3019 RMK AO2 RAB37 SLP222 P0000 60000 T01000050 51004
KPDX 070753Z 23003KT 10SM FEW040 SCT060 10/03 A3019 RMK AO2 SLP220 T01000033 402000094
KPDX 070653Z 23005KT 10SM SCT029 SCT041 BKN050 11/05 A3019 RMK AO2 SLP221 T01110050
KPDX 070621Z 24005KT 10SM BKN029 BKN035 12/06 A3018 RMK AO2 T01170056
KPDX 070553Z 00000KT 10SM SCT034 BKN045 BKN050 12/06 A3018 RMK AO2 SLP218 60000 T01170061 10172 20117 51023
KPDX 070453Z 34004KT 10SM SCT033 BKN041 OVC050 12/06 A3017 RMK AO2 SLP214 T01220061
KPDX 070353Z 28007KT 10SM SCT034 BKN050 12/06 A3014 RMK AO2 SLP204 T01220056
KPDX 070253Z 27014KT 10SM FEW034 SCT050 BKN070 14/06 A3011 RMK AO2 RAE02 SLP195 P0000 60000 T01440056 53016
KPDX 070153Z 25011KT 10SM -RA BKN060 BKN070 14/09 A3009 RMK AO2 RAB23 SLP189 P0000 T01440089
KPDX 070053Z 24011KT 10SM BKN050 BKN065 17/05 A3007 RMK AO2 SLP181 T01720050
KPDX 062353Z 20009KT 10SM SCT048 BKN060 BKN120 17/05 A3006 RMK AO2 SLP179 60000 T01720050 10200 20150 50006
KPDX 062253Z 21009KT 10SM BKN040 BKN080 OVC110 17/07 A3007 RMK AO2 SLP180 T01670067
KPDX 062153Z 20010KT 10SM FEW034 SCT048 OVC070 16/09 A3006 RMK AO2 RAB2056E52 SLP179 P0000 T01560094
KPDX 062053Z 24010KT 10SM FEW039 SCT046 OVC065 17/09 A3005 RMK AO2 RAB17E30 SLP173 P0000 60000 T01670089 53027
KPDX 061953Z 26011KT 10SM BKN048 OVC060 17/08 A3002 RMK AO2 WSHFT 1858 SLP165 T01720078
KPDX 061918Z 26016KT 10SM BKN048 BKN075 19/06 A3000 RMK AO2 WSHFT 1858 T01890061
KPDX 061853Z 20011G21KT 10SM SCT048 BKN060 BKN250 19/05 A2999 RMK AO2 SLP153 P0000 T01890050
KPDX 061753Z 17008KT 10SM FEW065 SCT080 BKN110 18/04 A2997 RMK AO2 SLP146 ACC ALQDS T01830044 10183 20133 51012
KPDX 061653Z 19009KT 10SM FEW055 BKN080 OVC250 17/04 A2996 RMK AO2 SLP142 T01720044
KPDX 061553Z 18012KT 10SM FEW065 BKN080 BKN250 16/06 A2995 RMK AO2 SLP139 ACC N-E AND S T01610056